Time;durP1;ratioP1;P1;durP2;ratioP2;P2;SDS_P1;SDS_P2;PMS_P1;PMS_P2;Temp;Humidity;BMP_temperature;BMP_pressure;BME280_temperature;BME280_humidity;BME280_pressure;Samples;Min_cycle;Max_cycle;Signal;HPM_P1;HPM_P2
2023/07/09 00:01:46;;;;;;;0.60;0.60;;;;;;;21.98;100.00;100316.53;5051752;28;20589;-72
2023/07/09 00:04:13;;;;;;;0.60;0.60;;;;;;;21.96;100.00;100313.06;5051072;28;20261;-72
2023/07/09 00:06:41;;;;;;;0.55;0.55;;;;;;;21.76;100.00;100284.53;5050185;28;20195;-72
2023/07/09 00:09:14;;;;;;;0.60;0.60;;;;;;;21.87;100.00;100317.72;5050741;28;20222;-71
2023/07/09 00:11:41;;;;;;;0.70;0.70;;;;;;;21.72;100.00;100304.00;5050399;28;20214;-72
2023/07/09 00:14:09;;;;;;;0.60;0.60;;;;;;;21.78;100.00;100324.09;5049176;28;20658;-72
2023/07/09 00:16:36;;;;;;;0.60;0.60;;;;;;;21.71;100.00;100317.25;5051425;28;20203;-72
2023/07/09 00:19:05;;;;;;;0.50;0.50;;;;;;;21.83;100.00;100316.91;5050403;28;20717;-72
2023/07/09 00:21:33;;;;;;;0.60;0.60;;;;;;;21.77;100.00;100311.78;5050572;28;20226;-72
2023/07/09 00:24:04;;;;;;;0.70;0.70;;;;;;;21.78;100.00;100324.09;5047131;28;20235;-72
2023/07/09 00:26:31;;;;;;;0.60;0.60;;;;;;;21.65;100.00;100317.41;5050060;28;20658;-72
2023/07/09 00:28:58;;;;;;;0.60;0.60;;;;;;;21.46;100.00;100305.59;5050572;28;20208;-72
2023/07/09 00:31:25;;;;;;;0.57;0.57;;;;;;;21.52;100.00;100316.00;5050818;28;20685;-72
2023/07/09 00:33:52;;;;;;;0.60;0.60;;;;;;;21.48;100.00;100304.66;5046845;28;20675;-72
2023/07/09 00:36:26;;;;;;;0.60;0.60;;;;;;;21.64;100.00;100310.41;5030954;28;20199;-72
2023/07/09 00:38:53;;;;;;;0.70;0.70;;;;;;;21.64;100.00;100307.75;5033684;28;20192;-72
2023/07/09 00:41:21;;;;;;;0.60;0.60;;;;;;;21.54;100.00;100317.69;5050923;28;20234;-72
2023/07/09 00:43:50;;;;;;;0.60;0.60;;;;;;;21.50;100.00;100318.69;5051057;28;20234;-72
2023/07/09 00:46:33;;;;;;;0.60;0.60;;;;;;;21.52;100.00;100319.50;5050913;28;20302;-72
2023/07/09 00:49:05;;;;;;;0.60;0.60;;;;;;;21.44;100.00;100315.34;5050081;28;20199;-72
2023/07/09 00:51:37;;;;;;;1.65;1.27;;;;;;;21.53;100.00;100334.44;5050569;28;20200;-72
2023/07/09 00:54:14;;;;;;;0.70;0.70;;;;;;;21.46;100.00;100337.25;5051076;28;20210;-72
2023/07/09 00:56:46;;;;;;;0.60;0.60;;;;;;;21.28;100.00;100325.41;5015166;28;20203;-72
2023/07/09 00:59:18;;;;;;;0.93;0.93;;;;;;;21.30;100.00;100331.50;5051142;28;20199;-72
2023/07/09 01:01:47;;;;;;;0.70;0.70;;;;;;;21.12;100.00;100332.81;5050999;28;20224;-72
2023/07/09 01:04:16;;;;;;;0.60;0.60;;;;;;;21.07;100.00;100334.66;5050823;28;20258;-72
2023/07/09 01:06:49;;;;;;;0.70;0.70;;;;;;;20.92;100.00;100307.78;5050786;28;20295;-72
2023/07/09 01:09:17;;;;;;;0.75;0.75;;;;;;;20.94;100.00;100329.72;5050935;28;20677;-72
2023/07/09 01:11:44;;;;;;;0.68;0.68;;;;;;;20.94;100.00;100333.19;5050008;28;20203;-72
2023/07/09 01:14:17;;;;;;;0.60;0.60;;;;;;;21.00;100.00;100342.75;5050624;28;20199;-72
2023/07/09 01:16:48;;;;;;;0.90;0.90;;;;;;;20.92;100.00;100334.16;5032064;28;20191;-72
2023/07/09 01:19:16;;;;;;;0.60;0.60;;;;;;;20.89;100.00;100332.47;5050718;28;20654;-72
2023/07/09 01:21:44;;;;;;;0.60;0.60;;;;;;;20.78;100.00;100316.03;5050190;28;20219;-72
2023/07/09 01:24:15;;;;;;;0.60;0.60;;;;;;;20.87;100.00;100338.69;5050465;28;20204;-72
2023/07/09 01:26:43;;;;;;;0.60;0.60;;;;;;;20.87;100.00;100342.16;5017003;28;20726;-72
2023/07/09 01:29:10;;;;;;;0.65;0.65;;;;;;;20.84;100.00;100346.63;5054040;28;20191;-72
2023/07/09 01:31:37;;;;;;;0.60;0.60;;;;;;;20.89;100.00;100350.91;5054136;28;20192;-72
2023/07/09 01:34:04;;;;;;;0.70;0.70;;;;;;;20.91;100.00;100353.50;5053833;28;20195;-72
2023/07/09 01:36:31;;;;;;;0.80;0.80;;;;;;;20.67;100.00;100318.03;5018605;28;20594;-72
2023/07/09 01:38:59;;;;;;;0.70;0.70;;;;;;;20.90;100.00;100368.47;5054361;28;20195;-72
2023/07/09 01:41:26;;;;;;;0.90;0.90;;;;;;;20.84;100.00;100368.59;5053847;28;20227;-72
2023/07/09 01:43:53;;;;;;;0.60;0.60;;;;;;;20.78;100.00;100368.72;5018427;28;20195;-72
2023/07/09 01:46:20;;;;;;;0.60;0.60;;;;;;;20.74;100.00;100373.19;5054087;28;20203;-72
2023/07/09 01:48:49;;;;;;;0.70;0.70;;;;;;;20.71;100.00;100375.03;5053709;28;20265;-72
2023/07/09 01:51:17;;;;;;;0.60;0.60;;;;;;;20.65;100.00;100372.53;5053825;28;20207;-72
2023/07/09 01:53:45;;;;;;;0.60;0.60;;;;;;;20.49;100.00;100363.22;5053562;28;20208;-72
2023/07/09 01:56:13;;;;;;;0.70;0.70;;;;;;;20.35;100.00;100367.91;5053555;28;20231;-72
2023/07/09 01:58:41;;;;;;;0.65;0.65;;;;;;;20.27;100.00;100368.91;5053621;28;20293;-73
2023/07/09 02:01:08;;;;;;;0.70;0.70;;;;;;;20.21;100.00;100353.22;5053701;28;20209;-73
2023/07/09 02:03:35;;;;;;;0.60;0.60;;;;;;;20.33;100.00;100375.84;5053441;28;20195;-73
2023/07/09 02:06:09;;;;;;;0.52;0.52;;;;;;;20.10;100.00;100347.28;5053309;28;20210;-72
2023/07/09 02:08:36;;;;;;;0.60;0.60;;;;;;;20.27;100.00;100368.91;5022322;28;20204;-72
2023/07/09 02:11:03;;;;;;;0.60;0.60;;;;;;;20.31;100.00;100376.75;5033547;28;20196;-72
2023/07/09 02:13:31;;;;;;;0.70;0.70;;;;;;;20.36;100.00;100377.53;5038453;28;20211;-72
2023/07/09 02:15:57;;;;;;;0.63;0.63;;;;;;;20.31;100.00;100369.72;5053465;28;20579;-72
2023/07/09 02:18:24;;;;;;;0.70;0.70;;;;;;;20.17;100.00;100346.28;5053399;28;20196;-73
2023/07/09 02:20:51;;;;;;;0.70;0.70;;;;;;;20.35;100.00;100378.44;5053123;28;20204;-71
2023/07/09 02:23:18;;;;;;;0.60;0.60;;;;;;;20.19;100.00;100347.09;5052443;28;20227;-72
2023/07/09 02:25:45;;;;;;;0.70;0.70;;;;;;;20.46;100.00;100381.72;5052809;28;20663;-72
2023/07/09 02:28:11;;;;;;;3.03;1.02;;;;;;;20.43;100.00;100382.66;5053014;28;20210;-72
2023/07/09 02:30:40;;;;;;;0.60;0.60;;;;;;;20.44;100.00;100373.84;5053198;28;20270;-72
2023/07/09 02:33:07;;;;;;;0.60;0.60;;;;;;;20.42;100.00;100380.03;5018025;28;20210;-72
2023/07/09 02:35:35;;;;;;;1.17;0.93;;;;;;;20.40;100.00;100392.41;5052957;28;20210;-71
2023/07/09 02:38:02;;;;;;;0.60;0.60;;;;;;;20.49;100.00;100392.19;5052872;28;20202;-72
2023/07/09 02:40:29;;;;;;;0.70;0.70;;;;;;;20.49;100.00;100394.81;5053288;28;20196;-72
2023/07/09 02:42:55;;;;;;;0.68;0.68;;;;;;;20.49;100.00;100393.06;5052789;28;20230;-72
2023/07/09 02:45:22;;;;;;;0.60;0.60;;;;;;;20.52;100.00;100394.75;5052964;28;20233;-72
2023/07/09 02:47:50;;;;;;;0.70;0.70;;;;;;;20.61;100.00;100397.22;5052828;28;20655;-72
2023/07/09 02:50:17;;;;;;;0.90;0.90;;;;;;;20.57;100.00;100406.09;5052827;28;20211;-72
2023/07/09 02:52:44;;;;;;;0.80;0.80;;;;;;;20.60;100.00;100406.88;5017231;28;20617;-72
2023/07/09 02:55:11;;;;;;;0.70;0.70;;;;;;;20.63;100.00;100416.50;5017691;28;20195;-72
2023/07/09 02:57:38;;;;;;;0.60;0.60;;;;;;;20.73;100.00;100410.13;5052486;28;20231;-72
2023/07/09 03:00:06;;;;;;;0.60;0.60;;;;;;;20.68;100.00;100410.25;5052316;28;20655;-72
2023/07/09 03:02:34;;;;;;;0.60;0.60;;;;;;;20.70;100.00;100412.81;5052018;28;20751;-72
2023/07/09 03:05:02;;;;;;;0.60;0.60;;;;;;;20.74;100.00;100411.88;5052475;28;20700;-72
2023/07/09 03:07:29;;;;;;;0.68;0.68;;;;;;;20.74;100.00;100414.50;5017419;28;20199;-72
2023/07/09 03:09:56;;;;;;;0.60;0.60;;;;;;;20.66;100.00;100390.94;5017035;28;20211;-71
2023/07/09 03:12:22;;;;;;;0.73;0.73;;;;;;;20.82;100.00;100411.72;5052513;28;20199;-72
2023/07/09 03:14:50;;;;;;;0.63;0.63;;;;;;;20.58;100.00;100407.84;5052229;28;20199;-74
2023/07/09 03:17:16;;;;;;;0.65;0.65;;;;;;;20.77;100.00;100409.16;5052508;28;20233;-75
2023/07/09 03:19:43;;;;;;;0.60;0.60;;;;;;;21.07;100.00;100403.22;5052496;28;20199;-76
2023/07/09 03:22:11;;;;;;;0.60;0.60;;;;;;;21.93;100.00;100413.50;5052413;28;20676;-78
2023/07/09 03:24:38;;;;;;;0.60;0.60;;;;;;;22.57;100.00;100427.59;5052231;28;20208;-73
2023/07/09 03:27:06;;;;;;;0.80;0.80;;;;;;;23.18;100.00;100443.44;5051674;28;20582;-71
2023/07/09 03:29:33;;;;;;;0.68;0.68;;;;;;;23.73;100.00;100451.41;5016871;28;20195;-71
2023/07/09 03:31:59;;;;;;;0.60;0.60;;;;;;;23.95;100.00;100448.00;5051387;28;20625;-71
2023/07/09 03:34:26;;;;;;;0.90;0.88;;;;;;;24.29;100.00;100457.47;5051739;28;20831;-71
2023/07/09 03:36:53;;;;;;;0.60;0.60;;;;;;;24.41;100.00;100444.63;5051529;28;20542;-72
2023/07/09 03:39:21;;;;;;;0.68;0.68;;;;;;;24.85;100.00;100456.31;5051797;28;20265;-72
2023/07/09 03:41:48;;;;;;;0.60;0.60;;;;;;;25.18;100.00;100457.66;5051729;28;20203;-71
2023/07/09 03:44:14;;;;;;;0.50;0.50;;;;;;;25.51;100.00;100434.25;5051698;28;20196;-71
2023/07/09 03:46:41;;;;;;;0.60;0.60;;;;;;;25.76;100.00;100451.81;5051949;28;20200;-71
2023/07/09 03:49:08;;;;;;;0.70;0.70;;;;;;;26.43;100.00;100452.53;5051505;28;20277;-72
2023/07/09 03:51:35;;;;;;;0.60;0.60;;;;;;;27.39;100.00;100472.94;5016316;28;20203;-72
2023/07/09 03:54:01;;;;;;;0.60;0.60;;;;;;;27.86;93.73;100478.66;5051526;28;20216;-72
2023/07/09 03:56:29;;;;;;;0.50;0.50;;;;;;;28.41;90.98;100466.03;5051389;28;20210;-72
2023/07/09 03:58:56;;;;;;;0.50;0.50;;;;;;;28.66;86.77;100489.63;5051208;28;20284;-72
2023/07/09 04:01:23;;;;;;;0.50;0.50;;;;;;;28.94;82.73;100496.13;5051604;28;20275;-72
2023/07/09 04:03:50;;;;;;;0.55;0.55;;;;;;;29.09;79.19;100502.44;5051312;28;20724;-72
2023/07/09 04:06:17;;;;;;;0.50;0.50;;;;;;;28.98;81.33;100499.47;5016441;28;20265;-72
2023/07/09 04:08:43;;;;;;;0.60;0.60;;;;;;;28.72;83.35;100503.53;5051488;28;20329;-71
2023/07/09 04:11:10;;;;;;;0.50;0.50;;;;;;;28.37;87.87;100500.03;5051119;28;20198;-71
2023/07/09 04:13:39;;;;;;;0.60;0.60;;;;;;;28.85;83.79;100493.97;5050511;28;20654;-71
2023/07/09 04:16:06;;;;;;;0.60;0.60;;;;;;;29.37;80.39;100512.50;5051327;28;20712;-71
2023/07/09 04:18:33;;;;;;;1.67;1.58;;;;;;;29.38;78.63;100509.75;5051137;28;20582;-71
2023/07/09 04:20:59;;;;;;;0.50;0.50;;;;;;;29.63;77.65;100511.03;5050433;28;20199;-71
2023/07/09 04:23:26;;;;;;;0.55;0.55;;;;;;;29.31;77.74;100511.03;5049904;28;20288;-70
2023/07/09 04:25:53;;;;;;;0.50;0.50;;;;;;;28.88;80.07;100506.28;5050994;28;20195;-71
2023/07/09 04:28:20;;;;;;;0.60;0.60;;;;;;;29.12;79.29;100504.06;5050899;28;20203;-71
2023/07/09 04:30:50;;;;;;;0.50;0.50;;;;;;;29.69;75.23;100498.19;5016420;28;20190;-71
2023/07/09 04:33:18;;;;;;;0.50;0.50;;;;;;;29.84;73.44;100492.00;5050743;28;20202;-71
2023/07/09 04:35:45;;;;;;;0.60;0.60;;;;;;;30.53;68.34;100510.19;5050848;28;20230;-72
2023/07/09 04:38:12;;;;;;;0.88;0.88;;;;;;;30.86;65.44;100507.25;5051080;28;20199;-72
2023/07/09 04:40:39;;;;;;;0.50;0.50;;;;;;;30.66;65.16;100512.97;5048564;28;20272;-72
2023/07/09 04:43:06;;;;;;;0.40;0.40;;;;;;;30.87;64.24;100501.81;5011452;28;20599;-71
2023/07/09 04:45:33;;;;;;;0.50;0.50;;;;;;;31.12;60.58;100516.38;5049894;28;20674;-71
2023/07/09 04:48:01;;;;;;;0.60;0.60;;;;;;;31.30;61.19;100520.56;5050468;28;20658;-70
2023/07/09 04:50:28;;;;;;;0.50;0.50;;;;;;;31.53;60.43;100520.00;5050337;28;20249;-70
2023/07/09 04:52:54;;;;;;;0.50;0.50;;;;;;;31.32;64.73;100489.19;5050480;28;20195;-71
2023/07/09 04:55:21;;;;;;;0.60;0.60;;;;;;;31.54;61.05;100456.50;5049940;28;20269;-70
2023/07/09 04:57:48;;;;;;;0.50;0.50;;;;;;;32.28;58.66;100515.91;5050517;28;20659;-70
2023/07/09 05:00:15;;;;;;;0.50;0.50;;;;;;;32.42;56.29;100514.00;5050534;28;20190;-69
2023/07/09 05:02:42;;;;;;;0.40;0.40;;;;;;;32.27;55.59;100535.66;5054427;28;20230;-68
2023/07/09 05:05:11;;;;;;;0.50;0.50;;;;;;;32.19;55.15;100528.13;5054781;28;20194;-68
2023/07/09 05:07:38;;;;;;;0.60;0.60;;;;;;;32.21;56.20;100530.72;5054723;28;20203;-75
2023/07/09 05:10:05;;;;;;;0.50;0.50;;;;;;;32.18;55.28;100531.75;5054347;28;20203;-74
2023/07/09 05:12:33;;;;;;;0.50;0.50;;;;;;;32.24;54.71;100531.38;5020559;28;20198;-88
2023/07/09 05:14:59;;;;;;;0.50;0.50;;;;;;;31.37;57.81;100527.25;5055226;28;20207;-80
2023/07/09 05:17:26;;;;;;;0.50;0.50;;;;;;;31.21;59.55;100526.53;5054543;28;20205;-73
2023/07/09 05:19:53;;;;;;;0.60;0.60;;;;;;;30.63;63.98;100522.06;5054194;28;20624;-73
2023/07/09 05:22:21;;;;;;;0.50;0.50;;;;;;;30.65;63.14;100498.72;5053969;28;20195;-75
2023/07/09 05:24:48;;;;;;;0.50;0.50;;;;;;;31.25;61.57;100530.75;5055367;28;20225;-72
2023/07/09 05:27:15;;;;;;;0.50;0.50;;;;;;;31.27;61.93;100516.28;5050164;28;20207;-72
2023/07/09 05:29:41;;;;;;;0.60;0.60;;;;;;;31.33;62.37;100520.38;5038437;28;20254;-79
2023/07/09 05:32:08;;;;;;;0.68;0.68;;;;;;;31.39;62.21;100536.09;5045599;28;20264;-78
2023/07/09 05:34:35;;;;;;;0.50;0.50;;;;;;;31.36;63.89;100533.56;5043457;28;20581;-72
2023/07/09 05:37:02;;;;;;;0.60;0.60;;;;;;;31.32;64.17;100529.41;5041017;28;20200;-71
2023/07/09 05:39:30;;;;;;;0.73;0.73;;;;;;;31.15;65.59;100527.75;5042332;28;20210;-72
2023/07/09 05:41:57;;;;;;;0.50;0.50;;;;;;;30.98;65.71;100515.44;5033840;28;20204;-71
2023/07/09 05:44:23;;;;;;;0.50;0.50;;;;;;;31.08;65.21;100506.81;5039852;28;20227;-71
2023/07/09 05:46:50;;;;;;;0.82;0.82;;;;;;;31.22;64.53;100526.41;5047519;28;20214;-71
2023/07/09 05:49:17;;;;;;;0.50;0.50;;;;;;;30.56;66.65;100507.34;5033668;28;20277;-71
2023/07/09 05:51:44;;;;;;;0.70;0.70;;;;;;;30.36;69.81;100518.31;5044406;28;20207;-72
2023/07/09 05:54:11;;;;;;;0.60;0.60;;;;;;;30.76;68.10;100506.97;5033609;28;20211;-70
2023/07/09 05:56:39;;;;;;;1.95;1.25;;;;;;;30.38;67.70;100511.94;5036442;28;20337;-71
2023/07/09 05:59:06;;;;;;;0.50;0.50;;;;;;;30.53;68.56;100531.63;5015669;28;20196;-80
2023/07/09 06:01:33;;;;;;;0.98;0.82;;;;;;;30.12;73.14;100522.47;5040990;28;20217;-76
2023/07/09 06:04:00;;;;;;;0.50;0.50;;;;;;;29.81;74.93;100526.91;5043029;28;20310;-76
2023/07/09 06:06:26;;;;;;;0.60;0.60;;;;;;;29.21;80.02;100522.28;5047908;28;20290;-75
2023/07/09 06:08:54;;;;;;;0.52;0.52;;;;;;;28.90;84.26;100513.25;5053639;28;20195;-76
2023/07/09 06:11:21;;;;;;;0.55;0.55;;;;;;;28.82;84.17;100493.25;5053777;28;20203;-76
2023/07/09 06:13:49;;;;;;;0.50;0.50;;;;;;;29.09;82.69;100490.88;5031193;28;20655;-77
2023/07/09 06:16:17;;;;;;;0.80;0.80;;;;;;;28.83;83.86;100519.00;5045597;28;20207;-67
2023/07/09 06:18:43;;;;;;;0.70;0.70;;;;;;;29.41;80.03;100516.72;5033861;28;20211;-69
2023/07/09 06:21:12;;;;;;;0.50;0.50;;;;;;;29.20;79.53;100518.75;5052072;28;20200;-71
2023/07/09 06:23:39;;;;;;;0.43;0.43;;;;;;;29.48;78.28;100516.28;5051620;28;20233;-70
2023/07/09 06:26:06;;;;;;;0.50;0.50;;;;;;;29.15;79.97;100517.25;5033516;28;20269;-69
2023/07/09 06:28:33;;;;;;;0.50;0.50;;;;;;;28.68;80.03;100503.81;5024188;28;20199;-69
2023/07/09 06:31:01;;;;;;;0.50;0.50;;;;;;;28.75;81.55;100519.44;5007479;28;20211;-69
2023/07/09 06:33:29;;;;;;;0.60;0.60;;;;;;;28.28;82.78;100507.66;5049969;28;20199;-69
2023/07/09 06:35:58;;;;;;;0.50;0.50;;;;;;;28.50;86.33;100516.28;5049441;28;20207;-69
2023/07/09 06:38:25;;;;;;;0.50;0.50;;;;;;;28.52;84.98;100511.72;5032515;28;20235;-69
2023/07/09 06:40:52;;;;;;;0.40;0.40;;;;;;;28.11;83.73;100511.16;5032344;28;20200;-68
2023/07/09 06:43:19;;;;;;;0.60;0.60;;;;;;;27.94;86.51;100506.63;5032323;28;20232;-69
2023/07/09 06:45:50;;;;;;;0.50;0.50;;;;;;;27.91;85.89;100513.91;5032495;28;20271;-70
2023/07/09 06:48:18;;;;;;;0.50;0.50;;;;;;;27.45;92.02;100499.31;5032470;28;20231;-69
2023/07/09 06:50:45;;;;;;;0.50;0.50;;;;;;;26.99;91.06;100490.78;5045448;28;20289;-71
2023/07/09 06:53:12;;;;;;;0.60;0.60;;;;;;;26.42;96.37;100496.00;5038148;28;20207;-70
2023/07/09 06:55:39;;;;;;;0.60;0.60;;;;;;;26.44;99.88;100481.69;5041439;28;20196;-69
2023/07/09 06:58:06;;;;;;;0.55;0.55;;;;;;;26.60;97.61;100505.84;5049384;28;20694;-69
2023/07/09 07:00:34;;;;;;;0.60;0.60;;;;;;;26.77;98.89;100497.97;5042825;28;20196;-68
2023/07/09 07:03:01;;;;;;;0.55;0.55;;;;;;;26.93;100.00;100500.84;5034032;28;20236;-69
2023/07/09 07:05:29;;;;;;;0.50;0.50;;;;;;;27.23;97.41;100503.88;5044365;28;20215;-70
2023/07/09 07:07:56;;;;;;;0.60;0.60;;;;;;;26.97;92.72;100481.97;5031875;28;20678;-69
2023/07/09 07:10:22;;;;;;;0.60;0.60;;;;;;;27.20;97.70;100493.38;5045679;28;20682;-70
2023/07/09 07:12:49;;;;;;;0.70;0.70;;;;;;;27.37;100.00;100496.97;5031929;28;20203;-70
2023/07/09 07:15:18;;;;;;;0.50;0.50;;;;;;;27.13;100.00;100491.94;5015381;28;20204;-70
2023/07/09 07:17:46;;;;;;;0.60;0.60;;;;;;;27.19;100.00;100492.50;5051965;28;20204;-70
2023/07/09 07:20:14;;;;;;;0.60;0.60;;;;;;;27.42;100.00;100496.75;5051750;28;20203;-69
2023/07/09 07:22:42;;;;;;;0.88;0.88;;;;;;;27.70;96.61;100505.19;5051207;28;20207;-70
2023/07/09 07:25:10;;;;;;;0.77;0.77;;;;;;;27.80;99.31;100495.78;5051206;28;20231;-69
2023/07/09 07:27:38;;;;;;;0.50;0.50;;;;;;;27.88;94.58;100498.94;5043511;28;20211;-69
2023/07/09 07:30:08;;;;;;;1.00;1.00;;;;;;;27.82;98.46;100496.59;5045560;28;20203;-69
2023/07/09 07:32:36;;;;;;;0.70;0.70;;;;;;;27.78;96.04;100465.69;5038134;28;20203;-70
2023/07/09 07:35:02;;;;;;;0.50;0.50;;;;;;;27.80;93.90;100487.78;5051421;28;20199;-71
2023/07/09 07:37:29;;;;;;;0.60;0.60;;;;;;;27.53;96.02;100489.16;5037236;28;20200;-70
2023/07/09 07:39:57;;;;;;;0.65;0.65;;;;;;;27.40;99.28;100480.84;5051460;28;20195;-69
2023/07/09 07:42:24;;;;;;;0.70;0.70;;;;;;;27.29;100.00;100482.31;5051392;28;20566;-71
2023/07/09 07:44:52;;;;;;;0.60;0.60;;;;;;;27.46;100.00;100479.72;5051245;28;20226;-69
2023/07/09 07:47:18;;;;;;;0.60;0.60;;;;;;;27.28;100.00;100465.47;5050977;28;20214;-71
2023/07/09 07:49:45;;;;;;;0.50;0.50;;;;;;;27.38;100.00;100471.19;5044198;28;20199;-70
2023/07/09 07:52:12;;;;;;;0.60;0.60;;;;;;;27.25;100.00;100427.47;5015113;28;20203;-72
2023/07/09 07:54:39;;;;;;;0.80;0.80;;;;;;;27.47;100.00;100476.09;5012272;28;20206;-69
2023/07/09 07:57:08;;;;;;;0.60;0.60;;;;;;;26.97;100.00;100391.47;5050404;28;20235;-69
2023/07/09 07:59:35;;;;;;;0.60;0.60;;;;;;;26.61;100.00;100353.28;5050594;28;20204;-71
2023/07/09 08:02:02;;;;;;;0.50;0.50;;;;;;;27.17;100.00;100466.88;5050792;28;20277;-71
2023/07/09 08:04:29;;;;;;;0.52;0.52;;;;;;;27.52;100.00;100474.09;5046423;28;20228;-77
2023/07/09 08:06:56;;;;;;;1.08;1.08;;;;;;;27.60;100.00;100450.63;5028429;28;20298;-70
2023/07/09 08:09:23;;;;;;;0.60;0.60;;;;;;;27.66;99.06;100473.41;5034455;28;20192;-71
2023/07/09 08:11:50;;;;;;;0.60;0.60;;;;;;;27.81;99.84;100473.53;5050821;28;20207;-71
2023/07/09 08:14:18;;;;;;;0.60;0.60;;;;;;;27.55;100.00;100469.47;5050247;28;20674;-70
2023/07/09 08:16:45;;;;;;;0.70;0.70;;;;;;;27.48;97.24;100467.19;5050758;28;20257;-71
2023/07/09 08:19:12;;;;;;;0.50;0.50;;;;;;;27.78;98.01;100460.38;5012938;28;20207;-71
2023/07/09 08:21:39;;;;;;;0.60;0.60;;;;;;;27.74;95.94;100460.59;5050019;28;20206;-70
2023/07/09 08:24:07;;;;;;;0.60;0.60;;;;;;;27.80;84.25;100463.81;5041195;28;20223;-71
2023/07/09 08:26:34;;;;;;;0.60;0.60;;;;;;;27.86;78.99;100458.16;5000240;28;20232;-70
2023/07/09 08:29:00;;;;;;;0.60;0.60;;;;;;;27.90;79.69;100462.41;5050373;28;20230;-69
2023/07/09 08:31:28;;;;;;;0.70;0.70;;;;;;;27.85;80.33;100456.44;5050457;28;20662;-69
2023/07/09 08:33:55;;;;;;;0.50;0.50;;;;;;;28.05;79.54;100458.09;5050740;28;20216;-71
2023/07/09 08:36:22;;;;;;;0.50;0.50;;;;;;;27.73;87.57;100457.06;5054710;28;20206;-70
2023/07/09 08:38:49;;;;;;;0.60;0.60;;;;;;;27.80;85.63;100437.16;5054526;28;20231;-70
2023/07/09 08:41:32;;;;;;;0.60;0.60;;;;;;;28.30;80.84;100457.72;5054147;28;20272;-71
2023/07/09 08:44:10;;;;;;;0.60;0.60;;;;;;;27.70;75.21;100374.59;5049049;28;20240;-70
2023/07/09 08:46:54;;;;;;;0.60;0.60;;;;;;;28.38;75.80;100456.41;5043465;28;20214;-71
2023/07/09 08:49:27;;;;;;;0.55;0.55;;;;;;;28.38;74.33;100463.53;5040468;28;20203;-71
2023/07/09 08:51:57;;;;;;;0.50;0.50;;;;;;;28.35;71.28;100459.22;5037433;28;20635;-70
2023/07/09 08:54:28;;;;;;;0.60;0.60;;;;;;;28.43;69.40;100440.16;5034268;28;20216;-71
2023/07/09 08:56:59;;;;;;;0.50;0.50;;;;;;;28.57;68.47;100466.97;5034919;28;20253;-72
2023/07/09 08:59:27;;;;;;;0.70;0.70;;;;;;;28.23;67.87;100464.31;5036768;28;20647;-70
2023/07/09 09:01:59;;;;;;;0.60;0.60;;;;;;;28.21;69.29;100463.56;5035898;28;20207;-70
2023/07/09 09:04:29;;;;;;;0.60;0.60;;;;;;;28.34;74.98;100461.97;5035478;28;20700;-71
2023/07/09 09:07:06;;;;;;;0.60;0.60;;;;;;;28.59;71.52;100433.06;5036234;28;20211;-71
2023/07/09 09:09:39;;;;;;;1.50;1.40;;;;;;;28.72;69.82;100460.84;5035252;28;20196;-70
2023/07/09 09:12:17;;;;;;;0.60;0.60;;;;;;;28.59;69.68;100462.41;5033944;28;20200;-70
2023/07/09 09:14:47;;;;;;;0.77;0.77;;;;;;;28.49;73.72;100463.84;5035683;28;20658;-70
2023/07/09 09:17:19;;;;;;;0.60;0.60;;;;;;;28.67;78.36;100460.22;5035405;28;20223;-74
2023/07/09 09:19:49;;;;;;;0.50;0.50;;;;;;;28.73;76.34;100459.03;5040595;28;20208;-77
2023/07/09 09:22:22;;;;;;;0.60;0.60;;;;;;;28.87;78.02;100465.34;5041352;28;20202;-71
2023/07/09 09:24:59;;;;;;;0.60;0.60;;;;;;;28.86;76.16;100458.28;5052766;28;20246;-70
2023/07/09 09:27:26;;;;;;;0.60;0.60;;;;;;;28.86;67.92;100471.63;5050766;28;20211;-70
2023/07/09 09:29:53;;;;;;;0.60;0.60;;;;;;;28.92;70.94;100468.66;5017766;28;20629;-70
2023/07/09 09:32:26;;;;;;;0.60;0.60;;;;;;;29.00;70.04;100477.06;5052642;28;20212;-73
2023/07/09 09:34:53;;;;;;;0.60;0.60;;;;;;;28.56;67.80;100465.25;5053093;28;20261;-74
2023/07/09 09:37:28;;;;;;;0.75;0.75;;;;;;;28.57;63.96;100456.31;5052996;28;20199;-73
2023/07/09 09:39:55;;;;;;;0.60;0.60;;;;;;;28.51;62.51;100465.47;5052900;28;20226;-76
2023/07/09 09:42:24;;;;;;;0.60;0.60;;;;;;;28.36;66.84;100454.78;5053027;28;20294;-69
2023/07/09 09:44:54;;;;;;;0.60;0.60;;;;;;;28.36;66.54;100450.25;5052531;28;20310;-69
2023/07/09 09:47:25;;;;;;;0.60;0.60;;;;;;;28.43;64.62;100472.19;5048771;28;20208;-68
2023/07/09 09:49:53;;;;;;;0.60;0.60;;;;;;;28.65;64.84;100459.41;5052907;28;20195;-70
2023/07/09 09:52:21;;;;;;;0.60;0.60;;;;;;;28.65;65.63;100462.06;5052785;28;20226;-71
2023/07/09 09:54:53;;;;;;;0.50;0.50;;;;;;;28.42;65.19;100463.31;5052930;28;20234;-71
2023/07/09 09:57:22;;;;;;;0.60;0.60;;;;;;;28.32;63.67;100440.72;5014163;28;20224;-70
2023/07/09 09:59:49;;;;;;;0.60;0.60;;;;;;;28.34;57.41;100440.63;5050524;28;20203;-70
2023/07/09 10:02:18;;;;;;;0.63;0.63;;;;;;;28.40;54.82;100425.16;5052526;28;20674;-72
2023/07/09 10:04:47;;;;;;;0.50;0.50;;;;;;;28.63;50.87;100449.75;5053092;28;20227;-71
2023/07/09 10:07:23;;;;;;;0.50;0.50;;;;;;;29.01;51.39;100452.09;5017852;28;20203;-70
2023/07/09 10:09:52;;;;;;;0.50;0.50;;;;;;;28.76;48.31;100451.72;5052566;28;20293;-72
2023/07/09 10:12:36;;;;;;;0.50;0.50;;;;;;;28.16;49.33;100342.91;5052566;28;20203;-70
2023/07/09 10:15:15;;;;;;;0.50;0.50;;;;;;;28.84;48.99;100433.50;5051124;28;20211;-71
2023/07/09 10:17:50;;;;;;;0.50;0.50;;;;;;;28.93;48.97;100432.97;5052437;28;20203;-69
2023/07/09 10:20:26;;;;;;;0.90;0.90;;;;;;;28.90;48.85;100427.78;5052126;28;20210;-69
2023/07/09 10:22:58;;;;;;;0.50;0.50;;;;;;;29.23;48.73;100456.25;5052145;28;20290;-69
2023/07/09 10:25:38;;;;;;;0.50;0.50;;;;;;;29.24;48.21;100445.50;5051151;28;20670;-68
2023/07/09 10:28:31;;;;;;;0.50;0.50;;;;;;;29.29;47.94;100431.88;5043326;28;20215;-69
2023/07/09 10:31:08;;;;;;;0.60;0.60;;;;;;;29.48;47.63;100445.94;5050171;28;20291;-69
2023/07/09 10:33:47;;;;;;;0.50;0.50;;;;;;;29.50;46.35;100444.06;5052235;28;20650;-70
2023/07/09 10:36:27;;;;;;;0.60;0.60;;;;;;;29.57;46.62;100442.75;5051121;28;20630;-70
2023/07/09 10:39:00;;;;;;;0.57;0.57;;;;;;;29.25;46.40;100438.34;5045292;28;20206;-70
2023/07/09 10:41:27;;;;;;;0.55;0.55;;;;;;;29.35;46.17;100418.22;5049461;28;20207;-70
2023/07/09 10:44:00;;;;;;;0.60;0.60;;;;;;;29.57;47.13;100417.84;5051013;28;20202;-69
2023/07/09 10:46:32;;;;;;;1.10;0.82;;;;;;;29.96;46.92;100431.56;5051104;28;20274;-68
2023/07/09 10:49:00;;;;;;;0.50;0.50;;;;;;;29.75;46.23;100439.00;5050420;28;20199;-70
2023/07/09 10:51:35;;;;;;;0.47;0.47;;;;;;;29.88;46.58;100433.84;5051134;28;20196;-69
2023/07/09 10:54:12;;;;;;;0.80;0.80;;;;;;;30.05;46.66;100430.16;5051672;28;20205;-69
2023/07/09 10:56:40;;;;;;;3.28;3.05;;;;;;;30.13;48.02;100414.50;5050778;28;20691;-70
2023/07/09 10:59:17;;;;;;;0.50;0.50;;;;;;;30.04;46.29;100428.44;5049719;28;20199;-69
2023/07/09 11:01:48;;;;;;;0.50;0.50;;;;;;;29.80;46.85;100415.53;5050090;28;20203;-69
2023/07/09 11:04:25;;;;;;;0.63;0.63;;;;;;;29.95;47.05;100425.38;5051270;28;20628;-69
2023/07/09 11:06:57;;;;;;;0.50;0.50;;;;;;;30.07;45.77;100420.22;5014964;28;20199;-69
2023/07/09 11:09:29;;;;;;;0.60;0.60;;;;;;;30.07;46.32;100393.50;5050928;28;20608;-69
2023/07/09 11:12:00;;;;;;;0.50;0.50;;;;;;;30.18;46.16;100410.59;5014034;28;20206;-69
2023/07/09 11:14:35;;;;;;;0.60;0.60;;;;;;;30.05;45.64;100398.06;5045158;28;20627;-69
2023/07/09 11:17:03;;;;;;;0.73;0.73;;;;;;;29.69;46.12;100332.41;5047251;28;20214;-68
2023/07/09 11:19:30;;;;;;;0.55;0.55;;;;;;;29.97;45.43;100385.13;5044715;28;20694;-68
2023/07/09 11:22:07;;;;;;;0.60;0.60;;;;;;;30.08;44.37;100406.75;5050451;28;20596;-70
2023/07/09 11:24:46;;;;;;;0.73;0.73;;;;;;;30.15;45.52;100399.22;5015777;28;20223;-70
2023/07/09 11:27:22;;;;;;;0.90;0.90;;;;;;;30.22;45.86;100409.44;5013691;28;20983;-70
2023/07/09 11:29:56;;;;;;;0.50;0.50;;;;;;;30.19;44.81;100412.31;5051480;28;20191;-70